KSOP/SOP METAR and TAF weather

Enter ICAO airport designator
Station Type Date Time Source
KSOP METAR 2019/06/26 15:56 UTC NOAA

KSOP 261556Z AUTO 06007KT 010V210 10SM CLR 29/17 A3016 RMK AO2 SLP221 T02940167 PWINO $


Station Type Date Time Source
KSOP Decoded METAR 2019/06/26 15:56 UTC NOAA

Pinehurst/Southern Pines, Moore County Airport, NC, United States (KSOP) 35-14N 079-24W
Jun 26, 2019 - 11:56 AM EDT / 2019.06.26 1556 UTC
Wind: from the ENE (060 degrees) at 8 MPH (7 KT) (direction variable):0
Visibility: 10 mile(s):0
Sky conditions: clear
Temperature: 84.9 F (29.4 C)
Dew Point: 62.1 F (16.7 C)
Relative Humidity: 46%
Pressure (altimeter): 30.16 in. Hg (1021 hPa)
ob: KSOP 261556Z AUTO 06007KT 010V210 10SM CLR 29/17 A3016 RMK AO2 SLP221 T02940167 PWINO
cycle: 16

Station Type Date Time Source
KSOP TAF UTC NOAA

Error!

Example: see airport list